Time;durP1;ratioP1;P1;durP2;ratioP2;P2;SDS_P1;SDS_P2;PMS_P1;PMS_P2;Temp;Humidity;BMP_temperature;BMP_pressure;BME280_temperature;BME280_humidity;BME280_pressure;Samples;Min_cycle;Max_cycle;Signal;HPM_P1;HPM_P2
2021/11/20 00:03:04;;;;;;;12.90;11.63;;;;;;;11.84;60.29;99167.09;8286175;28;20241;-65
2021/11/20 00:07:08;;;;;;;12.73;11.60;;;;;;;11.69;60.52;99167.53;8267673;23;20379;-87
2021/11/20 00:11:13;;;;;;;12.33;11.13;;;;;;;11.71;60.97;99158.00;8222494;28;20261;-88
2021/11/20 00:15:20;;;;;;;13.43;12.13;;;;;;;11.81;60.36;99154.19;8207981;28;20238;-87
2021/11/20 00:19:26;;;;;;;14.47;12.23;;;;;;;11.90;59.99;99153.13;8222567;28;20242;-87
2021/11/20 00:23:31;;;;;;;12.13;10.93;;;;;;;11.83;60.23;99155.00;8222002;28;20290;-87
2021/11/20 00:27:37;;;;;;;13.33;12.03;;;;;;;11.92;59.88;99152.16;8221774;28;20434;-88
2021/11/20 00:31:42;;;;;;;12.73;11.53;;;;;;;11.96;60.08;99154.69;8221585;28;20587;-87
2021/11/20 00:35:47;;;;;;;12.93;11.77;;;;;;;12.00;59.88;99156.28;8221972;28;20298;-88
2021/11/20 00:39:51;;;;;;;13.10;11.90;;;;;;;12.05;59.75;99154.38;8221674;28;20239;-88
2021/11/20 00:43:54;;;;;;;13.37;12.00;;;;;;;12.00;59.48;99159.72;8221605;28;20243;-87
2021/11/20 00:47:58;;;;;;;14.53;13.23;;;;;;;11.95;60.14;99165.94;8221338;28;20443;-87
2021/11/20 00:52:03;;;;;;;16.23;13.50;;;;;;;11.99;59.85;99154.56;8220788;28;20311;-88
2021/11/20 00:56:07;;;;;;;14.47;13.07;;;;;;;11.95;59.64;99155.56;8205028;28;20234;-87
2021/11/20 01:00:14;;;;;;;14.50;13.03;;;;;;;12.04;59.37;99161.31;8221094;28;20242;-86
2021/11/20 01:04:17;;;;;;;14.97;13.43;;;;;;;11.99;59.83;99151.97;8242312;28;20242;-86
2021/11/20 01:08:25;;;;;;;15.93;14.37;;;;;;;12.02;59.55;99149.28;8185404;28;1235658;-86
2021/11/20 01:12:30;;;;;;;15.20;13.70;;;;;;;11.98;59.80;99147.69;8222678;28;20293;-86
2021/11/20 01:16:34;;;;;;;15.60;14.10;;;;;;;11.77;60.65;99152.59;8222582;28;20549;-86
2021/11/20 01:20:38;;;;;;;14.50;13.00;;;;;;;12.02;59.68;99152.72;8222511;28;20239;-86
2021/11/20 01:24:44;;;;;;;17.50;13.80;;;;;;;12.03;60.01;99148.38;8222359;28;20235;-86
2021/11/20 01:28:50;;;;;;;16.20;14.20;;;;;;;12.09;59.46;99150.78;8222267;28;20247;-86
2021/11/20 01:32:54;;;;;;;15.73;14.23;;;;;;;11.95;59.59;99146.00;8221953;28;20305;-86
2021/11/20 01:36:59;;;;;;;16.50;14.80;;;;;;;12.00;59.57;99153.69;8220625;28;20242;-86
2021/11/20 01:41:04;;;;;;;15.97;14.33;;;;;;;11.99;59.53;99146.78;8222341;28;20244;-86
2021/11/20 01:45:12;;;;;;;15.47;13.97;;;;;;;12.12;59.33;99148.09;8222844;28;20528;-86
2021/11/20 01:49:18;;;;;;;15.63;14.03;;;;;;;12.15;59.33;99134.16;8221625;28;20446;-86
2021/11/20 01:53:37;;;;;;;15.87;13.93;;;;;;;12.14;59.32;99128.09;8248187;28;20427;-86
2021/11/20 01:57:49;;;;;;;16.77;15.07;;;;;;;12.03;59.68;99123.28;8253361;28;20261;-87
2021/11/20 02:01:54;;;;;;;16.67;15.07;;;;;;;11.89;59.83;99115.91;8252526;28;20238;-86
2021/11/20 02:06:08;;;;;;;18.30;16.40;;;;;;;11.98;59.53;99114.78;8221025;28;20250;-86
2021/11/20 02:10:14;;;;;;;17.20;15.33;;;;;;;12.00;59.35;99112.97;8220487;28;20247;-88
2021/11/20 02:14:20;;;;;;;17.43;15.67;;;;;;;11.97;59.68;99112.22;8220458;28;20238;-88
2021/11/20 02:18:26;;;;;;;16.97;15.27;;;;;;;11.98;59.80;99107.00;8220843;28;20305;-88
2021/11/20 02:22:34;;;;;;;18.83;16.07;;;;;;;11.88;59.71;99109.00;8220353;28;20239;-88
2021/11/20 02:26:37;;;;;;;21.10;15.50;;;;;;;12.00;59.46;99112.16;8220758;28;20239;-88
2021/11/20 02:30:44;;;;;;;17.60;15.80;;;;;;;11.99;59.58;99108.66;8220437;28;20243;-87
2021/11/20 02:34:48;;;;;;;16.90;15.30;;;;;;;12.00;59.66;99105.19;8220805;28;20238;-88
2021/11/20 02:38:59;;;;;;;17.27;15.13;;;;;;;12.09;59.16;99104.06;8220105;28;20241;-88
2021/11/20 02:43:03;;;;;;;17.93;16.03;;;;;;;11.94;59.52;99100.22;8220385;28;20235;-86
2021/11/20 02:47:20;;;;;;;17.67;15.87;;;;;;;12.08;59.24;99094.56;8219997;28;20226;-89
2021/11/20 02:51:26;;;;;;;17.53;15.80;;;;;;;12.07;59.19;99087.66;8219932;28;20521;-89
2021/11/20 02:55:29;;;;;;;17.27;15.57;;;;;;;12.09;59.39;99083.28;8220344;28;20436;-89
2021/11/20 02:59:32;;;;;;;17.40;15.70;;;;;;;12.12;59.44;99076.22;8219103;28;20359;-90
2021/11/20 03:03:37;;;;;;;19.50;17.57;;;;;;;12.00;59.19;99075.78;8219815;28;20417;-90
2021/11/20 03:07:40;;;;;;;19.10;17.20;;;;;;;12.12;59.32;99083.16;8218379;28;20243;-88
2021/11/20 03:11:45;;;;;;;19.13;17.00;;;;;;;12.03;59.30;99075.69;8219096;28;20250;-88
2021/11/20 03:15:48;;;;;;;18.97;17.07;;;;;;;12.07;59.33;99062.56;8219573;28;20265;-88
2021/11/20 03:19:54;;;;;;;18.27;16.47;;;;;;;12.12;59.27;99063.25;8219344;28;20235;-88
2021/11/20 03:24:00;;;;;;;19.10;17.10;;;;;;;11.97;59.54;99062.91;8220030;28;20241;-92
2021/11/20 03:28:03;;;;;;;21.47;19.37;;;;;;;11.80;59.97;99060.81;8219500;28;20239;-92
2021/11/20 03:32:08;;;;;;;19.30;17.37;;;;;;;12.04;59.52;99044.47;8218553;28;20404;-89
2021/11/20 03:36:14;;;;;;;21.33;19.13;;;;;;;12.03;59.13;99049.72;8219320;28;20245;-90
2021/11/20 03:40:19;;;;;;;20.27;18.27;;;;;;;12.00;59.55;99049.84;8219334;28;20243;-89
2021/11/20 03:44:23;;;;;;;20.23;18.13;;;;;;;12.04;59.04;99041.03;8218480;28;20234;-89
2021/11/20 03:48:27;;;;;;;21.57;19.40;;;;;;;12.02;58.91;99041.09;8217591;28;20235;-88
2021/11/20 03:52:31;;;;;;;20.80;18.77;;;;;;;11.97;59.61;99036.94;8218566;28;20235;-87
2021/11/20 03:56:35;;;;;;;20.83;18.73;;;;;;;11.92;59.59;99039.69;8218446;28;20246;-87
2021/11/20 04:00:41;;;;;;;21.13;18.80;;;;;;;11.99;59.10;99037.75;8218323;28;20335;-87
2021/11/20 04:04:44;;;;;;;20.50;18.50;;;;;;;11.94;59.56;99032.72;8217114;28;20521;-90
2021/11/20 04:08:50;;;;;;;22.20;19.80;;;;;;;12.00;59.22;99029.06;8217476;28;20245;-88
2021/11/20 04:12:54;;;;;;;21.97;19.67;;;;;;;12.00;58.96;99039.44;8218071;28;20258;-88
2021/11/20 04:16:57;;;;;;;21.60;19.40;;;;;;;12.04;59.31;99033.25;8218052;28;20237;-88
2021/11/20 04:21:01;;;;;;;21.40;19.20;;;;;;;12.01;59.21;99026.41;8218303;28;20246;-85
2021/11/20 04:25:09;;;;;;;20.40;18.30;;;;;;;12.01;58.90;99023.81;8249906;28;20407;-86
2021/11/20 04:29:12;;;;;;;21.50;19.30;;;;;;;12.02;58.81;99020.31;8254937;28;20238;-89
2021/11/20 04:33:16;;;;;;;22.23;19.83;;;;;;;11.95;59.39;99012.78;8255993;28;20575;-89
2021/11/20 04:37:20;;;;;;;22.17;19.80;;;;;;;11.95;59.00;99008.44;8255825;28;20238;-89
2021/11/20 04:41:24;;;;;;;22.97;20.57;;;;;;;11.88;59.25;99025.94;8254568;28;20238;-89
2021/11/20 04:45:33;;;;;;;21.23;18.97;;;;;;;12.04;59.07;99020.28;8255559;28;20249;-88
2021/11/20 04:49:36;;;;;;;22.40;20.20;;;;;;;11.93;59.04;99018.03;8255594;28;20238;-89
2021/11/20 04:53:42;;;;;;;21.73;19.43;;;;;;;12.09;59.10;99020.97;8255378;28;20249;-88
2021/11/20 04:57:47;;;;;;;22.00;19.73;;;;;;;12.03;59.26;99008.19;8255397;28;20292;-89
2021/11/20 05:01:50;;;;;;;21.67;19.47;;;;;;;12.03;59.26;99006.44;8254782;28;20405;-86
2021/11/20 05:05:55;;;;;;;22.23;19.93;;;;;;;12.06;58.71;99013.28;8254543;28;20246;-88
2021/11/20 05:09:59;;;;;;;21.20;19.10;;;;;;;11.92;59.14;99009.41;8262529;28;20279;-88
2021/11/20 05:14:05;;;;;;;22.57;19.97;;;;;;;11.98;58.75;99003.16;8286703;28;20246;-88
2021/11/20 05:18:08;;;;;;;21.60;19.40;;;;;;;12.07;58.44;99013.22;8254018;28;20305;-88
2021/11/20 05:22:11;;;;;;;21.07;18.90;;;;;;;12.07;59.24;99005.44;8254592;28;20537;-89
2021/11/20 05:26:15;;;;;;;21.83;19.63;;;;;;;12.04;59.04;99009.88;8254322;28;20238;-89
2021/11/20 05:30:26;;;;;;;21.23;18.93;;;;;;;12.08;58.86;99008.88;8254146;28;20234;-88
2021/11/20 05:34:29;;;;;;;22.07;19.80;;;;;;;12.04;59.12;99005.53;8254148;28;20431;-89
2021/11/20 05:38:32;;;;;;;21.37;19.17;;;;;;;12.14;59.10;99003.47;8251666;28;20233;-88
2021/11/20 05:42:36;;;;;;;21.43;19.17;;;;;;;12.10;58.96;99000.13;8253941;28;20292;-88
2021/11/20 05:46:41;;;;;;;21.70;19.40;;;;;;;12.12;58.95;99000.09;8253919;28;20238;-89
2021/11/20 05:50:44;;;;;;;22.60;19.27;;;;;;;12.07;59.00;99001.97;8253208;28;20267;-89
2021/11/20 05:54:48;;;;;;;22.53;20.13;;;;;;;12.01;59.14;98995.25;8251978;28;20237;-87
2021/11/20 05:58:51;;;;;;;21.87;19.50;;;;;;;12.05;59.08;98996.00;8253387;28;20241;-87
2021/11/20 06:02:57;;;;;;;24.47;20.90;;;;;;;12.02;58.96;98996.13;8242673;28;20235;-87
2021/11/20 06:07:01;;;;;;;23.80;21.30;;;;;;;11.91;59.54;99005.09;8220146;28;20298;-88
2021/11/20 06:11:06;;;;;;;25.17;22.47;;;;;;;11.97;59.58;99001.44;8252387;28;20241;-85
2021/11/20 06:15:10;;;;;;;24.40;21.80;;;;;;;12.01;59.18;99002.19;8252948;28;20558;-85
2021/11/20 06:19:18;;;;;;;23.30;20.80;;;;;;;11.88;59.21;98997.38;8252623;28;20353;-85
2021/11/20 06:23:22;;;;;;;21.87;19.67;;;;;;;11.94;59.68;99004.16;8253118;28;20548;-88
2021/11/20 06:27:26;;;;;;;22.63;20.43;;;;;;;11.91;59.21;99005.09;8252580;28;20237;-90
2021/11/20 06:31:29;;;;;;;22.20;19.80;;;;;;;11.94;58.96;99017.13;8251805;28;20244;-90
2021/11/20 06:35:35;;;;;;;22.47;20.17;;;;;;;11.97;59.26;98998.84;8253161;28;20229;-94
2021/11/20 06:39:39;;;;;;;22.57;20.17;;;;;;;11.94;59.15;98998.97;8233959;28;20235;-94
2021/11/20 06:43:42;;;;;;;22.83;20.43;;;;;;;11.86;59.43;98998.31;8219610;28;20235;-95
2021/11/20 06:47:45;;;;;;;21.90;19.03;;;;;;;11.95;59.30;99005.84;8221071;28;20246;-94
2021/11/20 06:51:50;;;;;;;22.97;20.57;;;;;;;11.89;59.66;99000.81;8220750;28;20245;-92
2021/11/20 06:55:53;;;;;;;21.10;19.00;;;;;;;11.85;59.61;98999.22;8219908;28;20238;-88
2021/11/20 07:04:21;;;;;;;23.93;21.50;;;;;;;11.88;59.29;98992.19;8234954;28;20233;-88
2021/11/20 07:08:27;;;;;;;23.03;20.60;;;;;;;11.80;59.56;98996.78;8251975;28;20527;-89
2021/11/20 07:12:30;;;;;;;23.43;21.03;;;;;;;11.93;59.50;99000.69;8251535;28;20540;-90
2021/11/20 07:16:34;;;;;;;22.43;20.13;;;;;;;12.01;59.45;99002.19;8250713;28;20238;-91
2021/11/20 07:20:38;;;;;;;22.00;19.80;;;;;;;11.96;59.53;99002.34;8252154;28;20297;-90
2021/11/20 07:24:42;;;;;;;21.53;19.23;;;;;;;12.01;58.91;98999.59;8251353;28;20548;-88
2021/11/20 07:28:46;;;;;;;22.43;20.23;;;;;;;12.05;58.86;99002.06;8251223;28;20242;-88
2021/11/20 07:33:10;;;;;;;21.87;19.67;;;;;;;12.00;59.25;99008.28;8240939;28;20249;-88
2021/11/20 07:37:13;;;;;;;22.40;20.00;;;;;;;12.06;58.76;98993.34;8236538;28;20615;-91
2021/11/20 07:41:19;;;;;;;21.43;19.23;;;;;;;12.12;58.93;98994.88;8262730;28;20234;-89
2021/11/20 07:45:22;;;;;;;23.87;21.47;;;;;;;12.13;58.63;98984.47;8262925;28;20238;-91
2021/11/20 07:49:25;;;;;;;25.10;22.40;;;;;;;12.13;58.70;98978.41;8253425;28;20229;-92
2021/11/20 07:53:28;;;;;;;21.97;19.77;;;;;;;12.09;58.66;98967.28;8252989;28;20241;-89
2021/11/20 07:57:33;;;;;;;22.50;20.20;;;;;;;12.15;58.57;98975.75;8251492;28;20233;-88
2021/11/20 08:01:36;;;;;;;24.47;22.00;;;;;;;12.12;58.76;98968.91;8253706;28;20234;-89
2021/11/20 08:05:40;;;;;;;24.50;21.47;;;;;;;12.19;58.58;98966.97;8256431;28;20301;-90
2021/11/20 08:09:43;;;;;;;23.10;20.63;;;;;;;12.10;58.99;98979.34;8257662;28;20521;-93
2021/11/20 08:13:48;;;;;;;22.67;20.30;;;;;;;12.18;58.58;98973.91;8256744;28;20238;-91
2021/11/20 08:17:51;;;;;;;26.43;20.07;;;;;;;12.13;58.39;98962.84;8258716;28;20237;-91
2021/11/20 08:21:54;;;;;;;25.50;21.43;;;;;;;12.15;58.34;98965.34;8257948;28;20237;-90
2021/11/20 08:25:58;;;;;;;23.10;20.73;;;;;;;12.08;58.50;98967.34;8255555;28;20245;-91
2021/11/20 08:30:05;;;;;;;23.80;21.20;;;;;;;12.07;58.23;98960.44;8256718;28;20245;-91
2021/11/20 08:34:08;;;;;;;23.83;20.70;;;;;;;12.12;58.87;98961.97;8248904;28;20222;-90
2021/11/20 08:38:14;;;;;;;23.77;21.17;;;;;;;12.15;58.85;98960.16;8255704;28;20234;-90
2021/11/20 08:42:17;;;;;;;23.47;20.97;;;;;;;12.27;58.42;98960.59;8255754;28;20587;-90
2021/11/20 08:46:23;;;;;;;24.67;22.00;;;;;;;12.28;58.40;98954.50;8236837;28;20301;-90
2021/11/20 08:50:28;;;;;;;24.13;21.43;;;;;;;12.33;58.04;98955.16;8246130;28;20249;-90
2021/11/20 08:54:32;;;;;;;24.47;21.90;;;;;;;12.08;58.43;98950.00;8258537;28;20233;-88
2021/11/20 08:58:35;;;;;;;23.60;20.97;;;;;;;11.89;58.92;98944.59;8255162;28;20238;-88
2021/11/20 09:02:43;;;;;;;25.43;21.87;;;;;;;12.19;58.22;98943.59;8254822;28;20238;-87
2021/11/20 09:06:54;;;;;;;24.33;20.63;;;;;;;12.31;58.17;98946.59;8254468;28;20447;-88
2021/11/20 09:11:02;;;;;;;24.50;20.80;;;;;;;12.09;58.60;98941.31;8246532;28;20251;-88
2021/11/20 09:15:16;;;;;;;23.13;20.63;;;;;;;12.36;58.29;98937.81;8245869;28;20292;-87
2021/11/20 09:19:20;;;;;;;24.50;21.90;;;;;;;12.37;58.35;98942.09;8254998;28;20234;-88
2021/11/20 09:23:30;;;;;;;21.97;19.67;;;;;;;12.41;58.13;98938.47;8241342;28;20231;-86
2021/11/20 09:27:48;;;;;;;22.63;20.20;;;;;;;12.47;57.85;98930.44;8253203;28;20226;-91
2021/11/20 09:31:53;;;;;;;26.10;20.93;;;;;;;12.48;57.62;98932.16;8253969;28;20230;-87
2021/11/20 09:35:58;;;;;;;24.30;21.70;;;;;;;12.32;58.12;98930.13;8249809;28;20230;-86
2021/11/20 09:40:04;;;;;;;23.57;21.17;;;;;;;12.27;58.51;98936.38;8253856;28;20245;-86
2021/11/20 09:44:08;;;;;;;23.80;20.33;;;;;;;12.50;57.92;98918.19;8228531;28;20242;-86
2021/11/20 09:48:14;;;;;;;23.33;20.93;;;;;;;12.49;58.05;98921.72;8221873;28;20235;-87
2021/11/20 09:52:20;;;;;;;23.20;20.80;;;;;;;12.39;58.15;98901.31;8221097;28;20231;-86
2021/11/20 09:56:26;;;;;;;22.27;19.80;;;;;;;12.48;57.59;98903.56;8220311;28;20243;-86
2021/11/20 10:01:07;;;;;;;21.27;19.10;;;;;;;12.53;58.04;98904.25;8221372;28;20243;-86
2021/11/20 10:05:16;;;;;;;21.87;19.27;;;;;;;12.64;57.84;98896.91;8227527;28;20235;-86
2021/11/20 10:09:45;;;;;;;23.00;20.53;;;;;;;12.50;58.13;98893.97;8220652;28;20434;-87
2021/11/20 10:13:53;;;;;;;22.57;20.17;;;;;;;12.57;58.31;98885.06;8220515;28;20239;-87
2021/11/20 10:18:01;;;;;;;23.47;19.33;;;;;;;12.59;57.99;98885.84;8220708;28;20541;-87
2021/11/20 10:22:12;;;;;;;25.30;19.87;;;;;;;12.71;57.88;98871.53;8219907;28;20246;-87
2021/11/20 10:26:45;;;;;;;21.97;19.57;;;;;;;12.69;57.62;98868.97;8219924;28;20238;-87
2021/11/20 10:31:00;;;;;;;22.23;19.83;;;;;;;12.83;57.62;98868.47;8220174;28;20239;-87
2021/11/20 10:35:13;;;;;;;20.83;18.73;;;;;;;12.92;57.01;98859.44;8220003;28;20246;-86
2021/11/20 10:39:22;;;;;;;22.07;19.73;;;;;;;12.92;57.33;98856.84;8219699;28;20572;-87
2021/11/20 10:43:29;;;;;;;19.97;17.87;;;;;;;13.04;56.86;98843.38;8219717;28;20235;-86
2021/11/20 10:47:39;;;;;;;20.90;18.73;;;;;;;13.07;56.98;98848.41;8219894;28;20235;-87
2021/11/20 10:51:55;;;;;;;24.60;19.57;;;;;;;13.02;56.79;98836.50;8220085;28;20242;-87
2021/11/20 10:56:23;;;;;;;22.20;19.80;;;;;;;13.06;56.84;98838.06;8219639;28;20242;-86
2021/11/20 11:00:34;;;;;;;20.77;18.67;;;;;;;13.17;56.79;98832.44;8219157;28;20230;-87
2021/11/20 11:05:06;;;;;;;21.53;19.27;;;;;;;13.10;56.55;98822.31;8219596;28;20247;-86
2021/11/20 11:09:23;;;;;;;21.70;19.40;;;;;;;13.12;56.60;98817.03;8243962;28;20237;-87
2021/11/20 11:13:34;;;;;;;19.83;17.73;;;;;;;13.21;56.66;98808.88;8251146;28;20537;-89
2021/11/20 11:18:10;;;;;;;20.83;18.63;;;;;;;13.21;56.89;98808.00;8249426;28;20241;-85
2021/11/20 11:22:21;;;;;;;21.60;19.30;;;;;;;13.28;56.76;98797.28;8223675;28;20227;-85
2021/11/20 11:26:28;;;;;;;21.27;19.10;;;;;;;13.22;57.14;98787.13;8218314;28;20234;-85
2021/11/20 11:30:34;;;;;;;21.43;19.23;;;;;;;13.34;56.44;98783.19;8218241;28;20236;-84
2021/11/20 11:34:41;;;;;;;21.57;19.37;;;;;;;13.22;56.97;98781.94;8219449;28;20286;-86
2021/11/20 11:39:23;;;;;;;21.67;19.37;;;;;;;13.38;56.64;98771.75;8224945;28;20242;-88
2021/11/20 11:43:29;;;;;;;22.13;19.77;;;;;;;13.32;56.72;98764.22;8213458;28;20521;-85
2021/11/20 11:47:46;;;;;;;20.90;18.70;;;;;;;13.43;56.61;98753.34;8224383;28;20237;-87
2021/11/20 11:52:20;;;;;;;22.27;19.83;;;;;;;13.51;56.10;98740.84;8220451;28;20230;-87
2021/11/20 11:56:28;;;;;;;22.50;19.20;;;;;;;13.47;56.35;98726.28;8221475;28;20246;-88
2021/11/20 12:00:35;;;;;;;22.30;19.97;;;;;;;13.52;56.40;98733.88;8223839;28;20547;-87
2021/11/20 12:04:41;;;;;;;24.73;20.03;;;;;;;13.28;56.34;98721.00;8223169;28;20238;-86
2021/11/20 12:08:48;;;;;;;20.30;18.17;;;;;;;13.45;55.98;98712.50;8223254;28;20409;-86
2021/11/20 12:12:57;;;;;;;23.10;18.93;;;;;;;13.53;56.75;98705.19;8221349;28;20294;-86
2021/11/20 12:17:03;;;;;;;22.23;19.37;;;;;;;13.55;56.20;98690.34;8224089;28;20316;-86
2021/11/20 12:21:17;;;;;;;21.23;17.93;;;;;;;13.49;55.20;98685.41;8256129;28;20232;-86
2021/11/20 12:25:30;;;;;;;22.23;19.83;;;;;;;13.46;54.62;98680.34;8256276;28;20238;-86
2021/11/20 12:30:05;;;;;;;20.67;16.67;;;;;;;14.16;65.03;98681.44;8255795;28;20393;-84
2021/11/20 12:34:17;;;;;;;16.60;11.67;;;;;;;15.30;54.35;98672.38;8254827;28;20277;-85
2021/11/20 12:38:45;;;;;;;12.23;10.93;;;;;;;15.43;49.27;98663.81;8255936;28;20260;-87
2021/11/20 12:42:58;;;;;;;12.73;11.53;;;;;;;14.66;49.63;98659.13;8254895;28;20238;-87
2021/11/20 12:47:18;;;;;;;14.33;12.70;;;;;;;14.27;49.98;98642.72;8254646;28;20245;-87
2021/11/20 12:51:29;;;;;;;14.17;12.63;;;;;;;14.05;50.22;98629.03;8255134;28;20238;-85
2021/11/20 12:55:43;;;;;;;15.87;13.23;;;;;;;13.95;49.63;98631.22;8238825;28;20243;-86
2021/11/20 12:59:50;;;;;;;15.63;13.20;;;;;;;13.86;50.58;98622.13;8223269;28;20235;-87
2021/11/20 13:04:12;;;;;;;15.77;14.17;;;;;;;13.81;50.38;98624.09;8254132;28;20230;-86
2021/11/20 13:08:28;;;;;;;19.37;15.13;;;;;;;13.79;51.13;98612.91;8208460;28;20247;-84
2021/11/20 13:12:37;;;;;;;17.27;15.47;;;;;;;13.48;51.23;98603.09;8223189;28;20237;-85
2021/11/20 13:16:51;;;;;;;17.63;14.90;;;;;;;13.50;51.18;98601.25;8223154;28;20576;-86
2021/11/20 13:21:20;;;;;;;26.27;19.63;;;;;;;13.40;50.82;98590.44;8224625;28;20234;-86
2021/11/20 13:25:24;;;;;;;16.73;14.90;;;;;;;13.33;50.04;98594.22;8223987;28;20242;-88
2021/11/20 13:29:31;;;;;;;14.60;13.10;;;;;;;13.50;49.87;98585.66;8201016;28;20232;-86
2021/11/20 13:33:34;;;;;;;15.00;13.00;;;;;;;13.50;49.73;98570.03;8191646;28;20236;-86
2021/11/20 13:37:37;;;;;;;15.23;13.70;;;;;;;13.54;50.33;98576.78;8189901;28;20250;-88
2021/11/20 13:41:41;;;;;;;16.57;14.37;;;;;;;13.38;50.51;98560.19;8190159;28;20242;-86
2021/11/20 13:45:49;;;;;;;14.70;13.20;;;;;;;13.48;49.71;98553.66;8189790;28;20538;-86
2021/11/20 13:49:56;;;;;;;16.03;14.33;;;;;;;13.34;49.46;98556.88;8190756;28;20302;-86
2021/11/20 13:54:02;;;;;;;14.03;12.70;;;;;;;13.31;50.27;98544.03;8194502;28;20238;-86
2021/11/20 13:58:05;;;;;;;13.27;12.00;;;;;;;13.33;50.09;98546.53;8245129;28;20237;-86
2021/11/20 14:02:12;;;;;;;14.30;11.83;;;;;;;13.35;50.04;98540.38;8254056;28;20553;-86
2021/11/20 14:06:17;;;;;;;14.03;12.73;;;;;;;13.34;49.37;98540.44;8253630;28;20632;-88
2021/11/20 14:10:31;;;;;;;13.33;12.13;;;;;;;13.27;49.44;98539.84;8254193;28;20238;-87
2021/11/20 14:14:34;;;;;;;13.67;12.27;;;;;;;13.38;49.16;98528.97;8253452;28;20234;-87
2021/11/20 14:18:48;;;;;;;13.57;12.27;;;;;;;13.39;49.06;98522.88;8252379;28;20510;-86
2021/11/20 14:22:51;;;;;;;18.00;16.10;;;;;;;13.36;49.28;98523.00;8231059;28;20239;-87
2021/11/20 14:26:57;;;;;;;14.33;12.83;;;;;;;13.30;49.10;98521.53;8234738;28;20455;-87
2021/11/20 14:31:00;;;;;;;13.93;12.53;;;;;;;13.34;49.38;98512.66;8252621;28;20253;-87
2021/11/20 14:35:10;;;;;;;15.53;12.60;;;;;;;13.36;49.67;98512.59;8250729;28;20269;-86
2021/11/20 14:39:15;;;;;;;14.67;13.10;;;;;;;13.36;49.85;98500.41;8252896;28;20501;-86
2021/11/20 14:43:22;;;;;;;13.97;12.50;;;;;;;13.30;49.98;98495.50;8251973;28;20416;-87
2021/11/20 14:47:26;;;;;;;14.53;13.03;;;;;;;13.24;49.38;98483.59;8233882;28;20230;-87
2021/11/20 14:51:40;;;;;;;15.93;14.43;;;;;;;13.20;49.06;98489.88;8220364;28;20281;-85
2021/11/20 14:55:45;;;;;;;16.87;15.27;;;;;;;13.24;49.58;98480.16;8239473;28;20258;-87
2021/11/20 14:59:48;;;;;;;18.80;16.83;;;;;;;13.21;49.83;98468.16;8252157;28;20242;-87
2021/11/20 15:03:51;;;;;;;19.70;17.57;;;;;;;13.18;50.08;98470.06;8282870;28;20539;-87
2021/11/20 15:07:56;;;;;;;17.10;15.33;;;;;;;13.08;49.66;98457.47;8251995;28;20563;-87
2021/11/20 15:11:59;;;;;;;18.57;16.63;;;;;;;13.05;50.69;98446.38;8251872;28;20242;-87
2021/11/20 15:16:03;;;;;;;18.87;17.00;;;;;;;12.95;50.64;98438.16;8243260;28;20241;-86
2021/11/20 15:20:10;;;;;;;18.23;16.37;;;;;;;13.05;50.41;98444.63;8251758;28;20550;-86
2021/11/20 15:24:18;;;;;;;18.20;16.40;;;;;;;12.97;50.90;98441.53;8252202;28;20238;-86
2021/11/20 15:28:21;;;;;;;18.27;16.60;;;;;;;12.86;50.30;98439.44;8251721;28;20364;-87
2021/11/20 15:32:25;;;;;;;17.00;15.27;;;;;;;12.82;50.73;98430.09;8250752;28;20234;-86
2021/11/20 15:36:27;;;;;;;18.73;16.77;;;;;;;12.79;50.98;98429.38;8251115;28;20513;-87
2021/11/20 15:40:32;;;;;;;19.03;17.17;;;;;;;12.74;50.33;98429.59;8252236;28;20314;-87
2021/11/20 15:44:37;;;;;;;22.53;20.13;;;;;;;12.78;50.27;98420.75;8251700;28;20284;-87
2021/11/20 15:48:40;;;;;;;24.00;21.40;;;;;;;12.88;50.71;98418.56;8251717;28;20337;-87
2021/11/20 15:52:43;;;;;;;22.53;20.13;;;;;;;12.79;50.52;98417.22;8248814;28;20297;-86
2021/11/20 15:56:48;;;;;;;19.57;17.50;;;;;;;12.77;50.36;98418.22;8250731;28;20268;-86
2021/11/20 16:00:51;;;;;;;17.40;15.60;;;;;;;12.83;50.10;98412.72;8250762;28;20233;-86
2021/11/20 16:04:54;;;;;;;20.30;18.30;;;;;;;12.81;50.13;98409.34;8250894;28;20245;-84
2021/11/20 16:08:58;;;;;;;21.80;19.60;;;;;;;12.77;50.73;98408.66;8186613;28;20235;-85
2021/11/20 16:13:02;;;;;;;20.90;18.83;;;;;;;12.46;50.94;98398.84;8186923;28;20517;-86
2021/11/20 16:17:06;;;;;;;20.67;18.50;;;;;;;12.72;50.92;98405.44;8178310;28;20258;-85
2021/11/20 16:21:10;;;;;;;21.43;19.27;;;;;;;12.73;50.40;98398.50;8186262;28;20243;-85
2021/11/20 16:25:14;;;;;;;26.40;23.57;;;;;;;12.82;50.61;98404.09;8192694;28;20593;-86
2021/11/20 16:29:19;;;;;;;24.00;21.60;;;;;;;12.78;51.15;98401.72;8192961;28;20238;-86
2021/11/20 16:33:22;;;;;;;21.43;18.87;;;;;;;12.78;50.96;98396.53;8192227;28;20240;-86
2021/11/20 16:37:25;;;;;;;21.67;19.37;;;;;;;12.68;50.51;98396.94;8192338;28;20239;-85
2021/11/20 16:41:32;;;;;;;21.57;19.40;;;;;;;12.68;50.64;98383.94;8192003;28;20258;-85
2021/11/20 16:45:38;;;;;;;20.80;18.70;;;;;;;12.78;50.63;98384.38;8192082;28;20249;-85
2021/11/20 16:49:42;;;;;;;20.27;18.20;;;;;;;12.75;51.10;98383.66;8192108;28;20252;-85
2021/11/20 16:53:45;;;;;;;19.70;17.80;;;;;;;12.72;50.99;98376.88;8192242;28;20242;-85
2021/11/20 16:57:48;;;;;;;19.07;17.27;;;;;;;12.65;50.67;98370.25;8190401;28;20240;-84
2021/11/20 17:01:54;;;;;;;19.07;17.07;;;;;;;12.62;51.13;98357.41;8190922;28;20278;-85
2021/11/20 17:05:58;;;;;;;18.83;16.93;;;;;;;12.54;50.84;98360.34;8207449;28;20296;-86
2021/11/20 17:10:01;;;;;;;18.63;16.73;;;;;;;12.60;50.33;98357.47;8255241;28;20233;-85
2021/11/20 17:14:04;;;;;;;18.73;16.47;;;;;;;12.53;50.35;98348.28;8221473;28;20234;-85
2021/11/20 17:18:09;;;;;;;18.07;16.37;;;;;;;12.39;50.03;98345.47;8221784;28;20298;-85
2021/11/20 17:22:12;;;;;;;18.57;16.30;;;;;;;12.32;50.09;98339.72;8222382;28;20239;-86
2021/11/20 17:26:16;;;;;;;19.97;17.37;;;;;;;12.25;49.74;98326.16;8222374;28;20235;-86
2021/11/20 17:30:21;;;;;;;18.37;16.47;;;;;;;12.34;50.09;98324.91;8221901;28;20560;-84
2021/11/20 17:34:26;;;;;;;19.73;17.73;;;;;;;12.27;50.03;98321.75;8221953;28;20525;-84
2021/11/20 17:38:29;;;;;;;19.20;17.20;;;;;;;12.36;50.21;98324.84;8220813;28;20243;-85
2021/11/20 17:42:34;;;;;;;20.07;17.50;;;;;;;12.20;50.37;98319.50;8221840;28;20285;-85
2021/11/20 17:46:37;;;;;;;21.97;19.77;;;;;;;12.17;50.65;98311.88;8221698;28;20327;-84
2021/11/20 17:50:42;;;;;;;22.10;19.87;;;;;;;12.16;50.20;98308.41;8222247;28;20235;-85
2021/11/20 17:54:45;;;;;;;22.83;20.47;;;;;;;12.11;50.60;98307.78;8221628;28;20241;-85
2021/11/20 17:58:50;;;;;;;21.93;19.73;;;;;;;12.33;49.94;98308.47;8220259;28;20238;-84
2021/11/20 18:02:54;;;;;;;21.30;19.00;;;;;;;12.19;49.62;98303.09;8220440;28;20239;-85
2021/11/20 18:06:59;;;;;;;19.33;17.43;;;;;;;12.06;49.95;98307.16;8221495;28;20553;-86
2021/11/20 18:11:04;;;;;;;21.30;19.23;;;;;;;12.29;50.02;98306.94;8221001;28;20261;-85
2021/11/20 18:15:09;;;;;;;20.43;18.40;;;;;;;11.98;50.20;98306.66;8237180;28;20405;-85
2021/11/20 18:19:12;;;;;;;20.00;18.13;;;;;;;11.97;49.81;98307.56;8253139;28;20238;-84
2021/11/20 18:23:17;;;;;;;21.23;19.10;;;;;;;11.96;50.59;98292.91;8252544;28;20242;-84
2021/11/20 18:27:21;;;;;;;21.30;19.17;;;;;;;12.19;49.88;98284.91;8220366;28;20403;-84
2021/11/20 18:31:24;;;;;;;21.30;19.10;;;;;;;12.13;49.69;98278.25;8220830;28;20258;-84
2021/11/20 18:35:27;;;;;;;20.23;18.33;;;;;;;12.04;49.67;98277.81;8219297;28;20525;-87
2021/11/20 18:39:33;;;;;;;21.00;18.80;;;;;;;12.09;50.35;98284.50;8235507;28;20578;-84
2021/11/20 18:43:36;;;;;;;22.97;20.67;;;;;;;11.58;50.97;98275.47;8219986;28;20306;-83
2021/11/20 18:47:39;;;;;;;21.43;19.37;;;;;;;11.93;50.56;98268.75;8219607;28;20239;-85
2021/11/20 18:51:43;;;;;;;23.80;20.07;;;;;;;11.94;50.60;98259.22;8221362;28;20238;-84
2021/11/20 18:55:49;;;;;;;24.90;22.50;;;;;;;11.93;50.65;98239.38;8235392;28;20252;-86
2021/11/20 18:59:52;;;;;;;22.57;20.27;;;;;;;11.80;50.76;98239.03;8251834;28;20241;-81